Time;durP1;ratioP1;P1;durP2;ratioP2;P2;SDS_P1;SDS_P2;PMS_P1;PMS_P2;Temp;Humidity;BMP_temperature;BMP_pressure;BME280_temperature;BME280_humidity;BME280_pressure;Samples;Min_cycle;Max_cycle;Signal;HPM_P1;HPM_P2
2023/10/09 00:01:46;;;;;;;11.35;4.80;;;;;;;;;;5027655;28;20045;-81
2023/10/09 00:04:16;;;;;;;16.98;5.13;;;;;;;;;;5028677;28;20054;-81
2023/10/09 00:06:47;;;;;;;11.30;4.53;;;;;;;;;;5029738;28;20068;-81
2023/10/09 00:11:57;;;;;;;8.30;4.35;;;;;;;;;;5027400;28;20041;-82
2023/10/09 00:14:34;;;;;;;9.90;4.20;;;;;;;;;;5027093;27;20449;-84
2023/10/09 00:19:51;;;;;;;7.03;4.13;;;;;;;;;;5083320;27;20045;-82
2023/10/09 00:25:10;;;;;;;20.65;4.78;;;;;;;;;;5026180;27;20491;-80
2023/10/09 00:27:48;;;;;;;10.95;4.82;;;;;;;;;;5027711;28;20072;-81
2023/10/09 00:30:19;;;;;;;14.77;4.60;;;;;;;;;;5028291;28;20037;-83
2023/10/09 00:35:36;;;;;;;15.98;6.22;;;;;;;;;;5025440;27;20081;-83
2023/10/09 00:38:22;;;;;;;17.77;4.82;;;;;;;;;;5024096;28;20044;-81
2023/10/09 00:43:52;;;;;;;12.60;4.72;;;;;;;;;;5016403;28;20053;-81
2023/10/09 00:49:01;;;;;;;8.82;4.05;;;;;;;;;;5009407;28;20499;-81
2023/10/09 00:51:35;;;;;;;11.25;4.78;;;;;;;;;;5007764;28;20427;-81
2023/10/09 00:54:14;;;;;;;9.70;4.47;;;;;;;;;;5020949;28;20041;-81
2023/10/09 00:56:51;;;;;;;7.90;4.57;;;;;;;;;;5026098;28;20057;-80
2023/10/09 00:59:24;;;;;;;11.73;4.65;;;;;;;;;;5026008;28;20534;-82
2023/10/09 01:02:04;;;;;;;9.98;4.63;;;;;;;;;;5025912;28;20045;-81
2023/10/09 01:04:43;;;;;;;9.20;4.93;;;;;;;;;;5053854;28;20041;-82
2023/10/09 01:07:21;;;;;;;9.68;4.43;;;;;;;;;;5028247;27;21189;-81
2023/10/09 01:09:55;;;;;;;;;;;;;;;;;;5027630;28;20053;-82
2023/10/09 01:12:28;;;;;;;10.48;4.32;;;;;;;;;;5027979;28;19921;-83
2023/10/09 01:14:59;;;;;;;9.70;4.65;;;;;;;;;;5028458;28;20521;-81
2023/10/09 01:17:35;;;;;;;9.48;4.55;;;;;;;;;;5070107;27;20058;-82
2023/10/09 01:20:16;;;;;;;12.63;4.82;;;;;;;;;;5130351;27;20054;-82
2023/10/09 01:22:50;;;;;;;9.90;4.70;;;;;;;;;;5132561;27;20062;-81
2023/10/09 01:25:21;;;;;;;9.70;4.50;;;;;;;;;;5130016;27;20043;-80
2023/10/09 01:27:52;;;;;;;;;;;;;;;;;;5132674;27;20052;-81
2023/10/09 01:30:23;;;;;;;10.73;4.57;;;;;;;;;;5132048;27;20393;-81
2023/10/09 01:32:53;;;;;;;13.82;4.78;;;;;;;;;;5130617;27;20057;-81
2023/10/09 01:35:23;;;;;;;15.02;5.00;;;;;;;;;;5130644;27;20051;-81
2023/10/09 01:37:56;;;;;;;18.42;4.60;;;;;;;;;;5130056;27;20058;-81
2023/10/09 01:40:48;;;;;;;9.77;4.45;;;;;;;;;;5134104;27;20058;-83
2023/10/09 01:43:21;;;;;;;10.60;4.55;;;;;;;;;;5135796;27;20362;-81
2023/10/09 01:45:52;;;;;;;9.75;4.57;;;;;;;;;;5135889;27;20047;-81
2023/10/09 01:48:24;;;;;;;16.25;5.10;;;;;;;;;;5069060;27;20044;-81
2023/10/09 01:50:54;;;;;;;9.57;5.07;;;;;;;;;;5051669;28;20498;-82
2023/10/09 01:53:29;;;;;;;16.13;5.18;;;;;;;;;;5051652;28;20041;-82
2023/10/09 01:56:15;;;;;;;15.02;4.75;;;;;;;;;;5051256;28;20114;-83
2023/10/09 01:58:47;;;;;;;8.63;4.32;;;;;;;;;;5050083;28;20045;-82
2023/10/09 02:01:17;;;;;;;10.05;4.38;;;;;;;;;;5049539;28;20045;-84
2023/10/09 02:03:51;;;;;;;10.82;4.55;;;;;;;;;;5051359;28;20052;-84
2023/10/09 02:06:26;;;;;;;13.90;4.70;;;;;;;;;;5051497;28;20061;-82
2023/10/09 02:08:57;;;;;;;11.77;4.43;;;;;;;;;;5051571;28;20498;-82
2023/10/09 02:11:39;;;;;;;12.30;5.25;;;;;;;;;;5050740;28;20404;-82
2023/10/09 02:14:19;;;;;;;11.45;4.55;;;;;;;;;;5049726;28;20064;-82
2023/10/09 02:19:40;;;;;;;10.43;4.13;;;;;;;;;;5135564;27;20505;-85
2023/10/09 02:22:14;;;;;;;11.02;4.57;;;;;;;;;;5134794;27;20062;-81
2023/10/09 02:27:39;;;;;;;8.35;4.07;;;;;;;;;;5135017;27;20059;-81
2023/10/09 02:30:17;;;;;;;10.15;4.47;;;;;;;;;;5135049;27;20040;-82
2023/10/09 02:32:52;;;;;;;25.30;6.63;;;;;;;;;;5133409;27;20047;-84
2023/10/09 02:35:37;;;;;;;10.57;4.32;;;;;;;;;;5135017;27;20043;-82
2023/10/09 02:38:08;;;;;;;10.68;4.47;;;;;;;;;;5068630;27;20042;-82
2023/10/09 02:43:47;;;;;;;14.65;4.75;;;;;;;;;;5010616;28;20062;-82
2023/10/09 02:46:39;;;;;;;16.50;4.50;;;;;;;;;;5008470;28;20053;-82
2023/10/09 02:49:15;;;;;;;14.57;4.20;;;;;;;;;;5042015;28;20068;-84
2023/10/09 02:51:52;;;;;;;10.65;4.20;;;;;;;;;;5042142;28;20423;-82
2023/10/09 02:57:21;;;;;;;8.05;4.03;;;;;;;;;;5010806;28;20062;-83
2023/10/09 02:59:47;;;;;;;11.23;4.72;;;;;;;;;;5010753;28;20053;-82
2023/10/09 03:02:18;;;;;;;12.32;4.82;;;;;;;;;;5010296;28;20058;-85
2023/10/09 03:04:49;;;;;;;14.35;4.22;;;;;;;;;;5008706;28;20383;-86
2023/10/09 03:07:23;;;;;;;12.65;3.85;;;;;;;;;;5010214;28;20523;-82
2023/10/09 03:09:53;;;;;;;10.80;4.32;;;;;;;;;;5010530;28;20042;-85
2023/10/09 03:12:27;;;;;;;10.70;4.10;;;;;;;;;;5010180;28;20051;-82
2023/10/09 03:14:58;;;;;;;17.48;4.68;;;;;;;;;;5010515;28;20072;-83
2023/10/09 03:17:29;;;;;;;23.52;7.00;;;;;;;;;;5026928;28;20033;-82
2023/10/09 03:20:12;;;;;;;11.05;4.45;;;;;;;;;;5048166;28;20056;-84
2023/10/09 03:22:42;;;;;;;11.05;5.38;;;;;;;;;;5049742;28;20037;-81
2023/10/09 03:25:12;;;;;;;12.50;5.15;;;;;;;;;;5048005;28;20053;-82
2023/10/09 03:27:47;;;;;;;10.02;5.22;;;;;;;;;;5050083;28;20050;-82
2023/10/09 03:30:22;;;;;;;12.23;5.63;;;;;;;;;;5047326;28;20513;-83
2023/10/09 03:32:54;;;;;;;16.23;5.03;;;;;;;;;;5050176;28;20040;-85
2023/10/09 03:35:25;;;;;;;12.80;4.82;;;;;;;;;;5048216;28;20503;-82
2023/10/09 03:38:11;;;;;;;12.10;4.97;;;;;;;;;;5050013;28;20403;-82
2023/10/09 03:40:48;;;;;;;11.95;4.53;;;;;;;;;;5049530;28;20490;-82
2023/10/09 03:43:19;;;;;;;10.68;4.70;;;;;;;;;;5048346;28;20049;-82
2023/10/09 03:45:56;;;;;;;9.73;4.10;;;;;;;;;;5049522;28;20058;-83
2023/10/09 03:48:32;;;;;;;9.85;4.40;;;;;;;;;;5031835;28;20052;-83
2023/10/09 03:51:08;;;;;;;10.52;4.93;;;;;;;;;;5028185;28;20112;-83
2023/10/09 03:53:39;;;;;;;13.60;4.65;;;;;;;;;;5029747;28;20510;-85
2023/10/09 03:56:12;;;;;;;8.77;3.95;;;;;;;;;;5094184;27;20532;-84
2023/10/09 03:58:48;;;;;;;11.55;4.85;;;;;;;;;;5133662;27;20042;-82
2023/10/09 04:01:37;;;;;;;11.93;4.55;;;;;;;;;;5132834;27;20058;-81
2023/10/09 04:04:10;;;;;;;15.10;6.07;;;;;;;;;;5081192;27;20052;-82
2023/10/09 04:06:41;;;;;;;12.40;4.32;;;;;;;;;;5046379;28;20057;-82
2023/10/09 04:14:54;;;;;;;16.50;4.88;;;;;;;;;;5038594;28;20046;-82
2023/10/09 04:23:34;;;;;;;15.65;4.55;;;;;;;;;;5031324;28;20049;-84
2023/10/09 04:25:45;;;;;;;11.02;4.32;;;;;;;;;;5030238;28;20369;-83
2023/10/09 04:30:46;;;;;;;7.60;4.32;;;;;;;;;;5031516;28;20042;-83
2023/10/09 04:33:42;;;;;;;11.73;4.30;;;;;;;;;;5032025;28;20046;-81
2023/10/09 04:50:02;;;;;;;11.18;4.32;;;;;;;;;;5031009;28;20041;-82
2023/10/09 05:02:58;;;;;;;8.60;4.22;;;;;;;;;;5028054;28;20045;-83
2023/10/09 05:08:22;;;;;;;13.35;4.72;;;;;;;;;;5030860;28;20045;-83
2023/10/09 05:13:57;;;;;;;13.13;4.50;;;;;;;;;;5029743;28;20064;-82
2023/10/09 05:16:26;;;;;;;;;;;;;;;;;;5031087;28;20045;-81
2023/10/09 05:18:57;;;;;;;12.48;5.70;;;;;;;;;;5030342;28;19925;-82
2023/10/09 05:24:15;;;;;;;12.32;4.00;;;;;;;;;;5030862;28;20037;-83
2023/10/09 05:37:34;;;;;;;9.35;4.47;;;;;;;;;;5030252;28;20057;-83
2023/10/09 05:42:59;;;;;;;17.25;4.05;;;;;;;;;;5030551;28;20053;-83
2023/10/09 06:04:53;;;;;;;13.40;3.40;;;;;;;;;;5030354;28;20056;-82
2023/10/09 06:07:40;;;;;;;12.20;3.35;;;;;;;;;;5029912;28;20048;-84
2023/10/09 06:10:29;;;;;;;6.72;3.42;;;;;;;;;;5030285;28;20050;-81
2023/10/09 06:13:03;;;;;;;6.18;3.22;;;;;;;;;;5028405;28;20049;-82
2023/10/09 06:15:51;;;;;;;17.98;3.50;;;;;;;;;;5029369;28;20049;-84
2023/10/09 06:18:32;;;;;;;11.02;3.47;;;;;;;;;;5029033;28;20071;-84
2023/10/09 06:24:09;;;;;;;7.55;3.15;;;;;;;;;;5029499;28;20056;-84
2023/10/09 06:26:41;;;;;;;5.50;2.85;;;;;;;;;;5033335;28;20045;-82
2023/10/09 06:29:14;;;;;;;9.30;3.03;;;;;;;;;;5033231;28;20042;-82
2023/10/09 06:32:20;;;;;;;9.98;2.72;;;;;;;;;;5032987;28;20064;-81
2023/10/09 06:34:51;;;;;;;9.10;2.67;;;;;;;;;;5032938;28;20056;-82
2023/10/09 06:45:16;;;;;;;8.73;3.03;;;;;;;;;;5032889;28;20049;-82
2023/10/09 06:50:58;;;;;;;6.60;2.47;;;;;;;;;;5032620;28;20041;-82
2023/10/09 06:53:58;;;;;;;5.57;2.65;;;;;;;;;;5032670;28;20045;-81
2023/10/09 06:57:12;;;;;;;6.43;2.35;;;;;;;;;;5031129;28;20049;-82
2023/10/09 06:59:21;;;;;;;5.15;2.05;;;;;;;;;;5032850;28;20392;-86
2023/10/09 07:07:16;;;;;;;7.70;2.67;;;;;;;;;;5031929;28;20049;-82
2023/10/09 07:12:54;;;;;;;8.43;2.72;;;;;;;;;;5024107;28;20507;-82
2023/10/09 07:18:20;;;;;;;5.93;2.80;;;;;;;;;;5032728;28;20038;-81
2023/10/09 07:20:59;;;;;;;6.60;2.20;;;;;;;;;;5032447;28;20057;-82
2023/10/09 07:23:32;;;;;;;5.93;2.10;;;;;;;;;;5031362;28;20041;-83
2023/10/09 07:29:16;;;;;;;5.57;2.40;;;;;;;;;;5027527;28;20412;-85
2023/10/09 07:31:46;;;;;;;6.05;2.50;;;;;;;;;;5032078;28;20042;-82
2023/10/09 07:37:19;;;;;;;6.38;2.60;;;;;;;;;;5026811;28;20460;-82
2023/10/09 07:39:57;;;;;;;9.13;2.72;;;;;;;;;;5031850;28;20045;-85
2023/10/09 07:42:49;;;;;;;;;;;;;;;;;;5032706;28;20045;-82
2023/10/09 07:48:04;;;;;;;4.80;2.25;;;;;;;;;;5032246;28;20046;-84
2023/10/09 07:50:49;;;;;;;5.43;2.60;;;;;;;;;;5032047;28;20046;-84
2023/10/09 07:53:26;;;;;;;6.15;2.50;;;;;;;;;;5029973;28;20049;-82
2023/10/09 07:55:58;;;;;;;9.38;2.53;;;;;;;;;;5032077;28;20046;-84
2023/10/09 07:58:29;;;;;;;6.60;2.63;;;;;;;;;;5031993;28;20045;-83
2023/10/09 08:01:15;;;;;;;7.07;2.40;;;;;;;;;;5031960;28;20071;-82
2023/10/09 08:04:02;;;;;;;6.65;2.67;;;;;;;;;;5068710;27;20043;-81
2023/10/09 08:06:57;;;;;;;10.52;2.70;;;;;;;;;;5134077;27;20058;-81
2023/10/09 08:09:46;;;;;;;7.10;2.45;;;;;;;;;;5031139;28;20075;-81
2023/10/09 08:15:20;;;;;;;7.88;2.92;;;;;;;;;;5031753;28;20056;-82
2023/10/09 08:18:03;;;;;;;5.25;2.60;;;;;;;;;;5030556;28;20076;-83
2023/10/09 08:23:47;;;;;;;9.63;2.78;;;;;;;;;;5031528;28;20034;-83
2023/10/09 08:26:28;;;;;;;6.55;2.42;;;;;;;;;;5031122;28;20064;-81
2023/10/09 08:29:19;;;;;;;5.85;2.35;;;;;;;;;;5031386;28;20070;-81
2023/10/09 08:31:56;;;;;;;5.50;2.45;;;;;;;;;;5031400;28;20049;-82
2023/10/09 08:34:27;;;;;;;10.43;2.90;;;;;;;;;;5031269;28;20044;-82
2023/10/09 08:37:00;;;;;;;7.70;2.90;;;;;;;;;;5031292;28;20045;-83
2023/10/09 08:39:35;;;;;;;6.70;2.85;;;;;;;;;;5029729;28;20046;-81
2023/10/09 08:42:08;;;;;;;8.20;3.22;;;;;;;;;;5030977;28;20041;-80
2023/10/09 08:44:44;;;;;;;8.40;2.95;;;;;;;;;;5030974;28;20060;-82
2023/10/09 08:47:14;;;;;;;9.20;2.83;;;;;;;;;;5030681;28;20045;-82
2023/10/09 08:49:46;;;;;;;8.73;3.03;;;;;;;;;;5031021;28;20049;-83
2023/10/09 08:52:16;;;;;;;5.25;3.00;;;;;;;;;;5031268;28;20480;-81
2023/10/09 08:54:47;;;;;;;8.13;3.13;;;;;;;;;;5030682;28;20041;-84
2023/10/09 08:57:19;;;;;;;10.45;3.80;;;;;;;;;;5029971;28;20041;-80
2023/10/09 08:59:49;;;;;;;8.52;3.35;;;;;;;;;;5030555;28;20530;-81
2023/10/09 09:02:21;;;;;;;8.32;3.10;;;;;;;;;;5029490;28;20065;-81
2023/10/09 09:04:52;;;;;;;9.38;3.80;;;;;;;;;;5030659;28;20480;-80
2023/10/09 09:07:27;;;;;;;7.10;2.88;;;;;;;;;;5030317;28;20053;-82
2023/10/09 09:10:17;;;;;;;8.80;3.40;;;;;;;;;;5030537;28;20045;-80
2023/10/09 09:13:00;;;;;;;8.68;3.65;;;;;;;;;;5029858;28;20042;-81
2023/10/09 09:15:30;;;;;;;7.97;3.75;;;;;;;;;;5029629;28;20038;-80
2023/10/09 09:18:17;;;;;;;8.82;3.83;;;;;;;;;;5030391;28;20037;-82
2023/10/09 09:20:49;;;;;;;10.57;3.85;;;;;;;;;;5029048;28;20483;-80
2023/10/09 09:23:23;;;;;;;8.20;3.55;;;;;;;;;;5030338;28;20065;-81
2023/10/09 09:26:01;;;;;;;6.25;3.40;;;;;;;;;;5030447;28;20041;-83
2023/10/09 09:28:38;;;;;;;6.57;3.38;;;;;;;;;;5029115;28;20392;-81
2023/10/09 09:31:13;;;;;;;8.35;4.07;;;;;;;;;;5030443;28;20045;-85
2023/10/09 09:33:44;;;;;;;6.82;3.47;;;;;;;;;;5029560;28;20049;-82
2023/10/09 09:36:15;;;;;;;8.70;3.95;;;;;;;;;;5029476;28;20358;-83
2023/10/09 09:38:49;;;;;;;9.93;3.47;;;;;;;;;;5035842;28;20045;-82
2023/10/09 09:41:26;;;;;;;14.27;3.92;;;;;;;;;;5030337;28;20388;-81
2023/10/09 09:44:00;;;;;;;13.35;4.07;;;;;;;;;;5030239;28;20041;-83
2023/10/09 09:46:37;;;;;;;7.70;3.22;;;;;;;;;;5061230;28;20041;-80
2023/10/09 09:49:16;;;;;;;7.60;3.42;;;;;;;;;;5045776;28;20049;-80
2023/10/09 09:51:46;;;;;;;8.63;3.15;;;;;;;;;;5049773;28;20044;-83
2023/10/09 09:54:22;;;;;;;8.82;3.28;;;;;;;;;;5050015;28;20045;-82
2023/10/09 09:56:59;;;;;;;9.30;3.13;;;;;;;;;;5049625;28;20037;-81
2023/10/09 09:59:35;;;;;;;8.02;2.85;;;;;;;;;;5031938;28;20052;-82
2023/10/09 10:02:06;;;;;;;7.25;3.33;;;;;;;;;;5031783;28;20526;-82
2023/10/09 10:04:40;;;;;;;8.82;3.05;;;;;;;;;;5044565;28;20053;-80
2023/10/09 10:07:15;;;;;;;6.20;3.15;;;;;;;;;;5053113;28;20521;-80
2023/10/09 10:09:48;;;;;;;7.82;2.75;;;;;;;;;;5052923;28;20060;-81
2023/10/09 10:13:02;;;;;;;7.80;3.63;;;;;;;;;;5053130;28;20041;-81
2023/10/09 10:16:13;;;;;;;6.55;2.95;;;;;;;;;;5053021;28;20045;-82
2023/10/09 10:19:00;;;;;;;10.75;3.40;;;;;;;;;;5128843;27;20551;-82
2023/10/09 10:21:38;;;;;;;6.38;3.00;;;;;;;;;;5136479;27;20047;-82
2023/10/09 10:24:51;;;;;;;13.10;3.65;;;;;;;;;;5137517;27;20031;-81
2023/10/09 10:27:28;;;;;;;9.27;2.78;;;;;;;;;;5030114;27;20045;-82
2023/10/09 10:30:11;;;;;;;6.22;2.38;;;;;;;;;;5096893;27;20037;-82
2023/10/09 10:32:54;;;;;;;8.20;2.83;;;;;;;;;;5102760;27;20062;-83
2023/10/09 10:49:15;;;;;;;6.10;2.05;;;;;;;;;;5033272;27;20425;-80
2023/10/09 10:51:49;;;;;;;4.88;2.50;;;;;;;;;;5016824;28;21441;-81
2023/10/09 10:54:45;;;;;;;8.40;2.38;;;;;;;;;;5038382;28;20396;-82
2023/10/09 10:57:19;;;;;;;4.75;1.80;;;;;;;;;;5026157;28;20041;-82
2023/10/09 11:00:02;;;;;;;7.15;2.28;;;;;;;;;;5024924;28;20046;-83
2023/10/09 11:02:37;;;;;;;7.93;2.78;;;;;;;;;;5025134;28;20498;-81
2023/10/09 11:05:14;;;;;;;5.35;2.05;;;;;;;;;;5025443;28;20050;-80
2023/10/09 11:07:45;;;;;;;4.95;1.95;;;;;;;;;;5025017;28;20463;-80
2023/10/09 11:10:27;;;;;;;5.88;2.08;;;;;;;;;;5024885;28;20058;-80
2023/10/09 11:15:44;;;;;;;7.43;3.95;;;;;;;;;;5026121;28;20045;-81
2023/10/09 11:18:27;;;;;;;5.40;2.40;;;;;;;;;;5025246;28;20116;-82
2023/10/09 11:23:38;;;;;;;8.82;4.07;;;;;;;;;;5025494;28;20050;-84
2023/10/09 11:26:25;;;;;;;9.13;2.75;;;;;;;;;;5046303;28;20045;-83
2023/10/09 11:32:05;;;;;;;6.15;3.05;;;;;;;;;;5044308;28;20052;-83
2023/10/09 11:34:37;;;;;;;5.90;2.20;;;;;;;;;;5044055;28;20057;-81
2023/10/09 11:40:23;;;;;;;7.40;2.17;;;;;;;;;;5029077;28;20062;-82
2023/10/09 11:42:57;;;;;;;4.45;2.22;;;;;;;;;;5044454;28;20049;-81
2023/10/09 11:45:29;;;;;;;4.50;1.58;;;;;;;;;;5044440;28;20057;-80
2023/10/09 11:48:46;;;;;;;4.65;1.98;;;;;;;;;;5042331;28;20411;-81
2023/10/09 11:51:19;;;;;;;3.75;1.38;;;;;;;;;;5026286;28;20065;-80
2023/10/09 11:53:50;;;;;;;5.25;1.90;;;;;;;;;;5014043;28;20037;-84
2023/10/09 11:56:26;;;;;;;6.80;1.80;;;;;;;;;;5013649;28;20058;-82
2023/10/09 11:58:58;;;;;;;7.28;1.67;;;;;;;;;;5030735;28;20052;-81
2023/10/09 12:01:35;;;;;;;5.43;1.77;;;;;;;;;;5030917;28;20057;-83
2023/10/09 12:04:09;;;;;;;5.53;1.50;;;;;;;;;;5030854;28;20056;-80
2023/10/09 12:06:42;;;;;;;3.33;1.60;;;;;;;;;;5030814;28;20058;-79
2023/10/09 12:09:23;;;;;;;6.38;2.20;;;;;;;;;;5030378;28;21458;-80
2023/10/09 12:11:53;;;;;;;5.22;1.80;;;;;;;;;;5027255;28;20498;-80
2023/10/09 12:14:37;;;;;;;3.05;1.35;;;;;;;;;;5030263;28;20049;-80
2023/10/09 12:17:09;;;;;;;3.38;1.50;;;;;;;;;;5030619;28;20170;-79
2023/10/09 12:19:40;;;;;;;4.03;1.80;;;;;;;;;;5030238;28;20395;-79
2023/10/09 12:22:10;;;;;;;6.43;2.78;;;;;;;;;;5027717;28;20038;-80
2023/10/09 12:24:43;;;;;;;3.13;1.50;;;;;;;;;;5030015;28;20065;-78
2023/10/09 12:27:14;;;;;;;4.07;1.55;;;;;;;;;;5011820;28;20053;-81
2023/10/09 12:29:44;;;;;;;7.43;1.33;;;;;;;;;;5009232;28;20406;-79
2023/10/09 12:32:20;;;;;;;4.57;1.52;;;;;;;;;;5011231;28;20050;-78
2023/10/09 12:34:50;;;;;;;7.75;1.88;;;;;;;;;;5010520;28;20054;-81
2023/10/09 12:37:21;;;;;;;5.00;1.65;;;;;;;;;;5009389;28;20046;-79
2023/10/09 12:39:55;;;;;;;4.82;1.83;;;;;;;;;;5010486;28;20053;-82
2023/10/09 12:42:28;;;;;;;5.00;1.88;;;;;;;;;;5011407;28;20042;-82
2023/10/09 12:44:58;;;;;;;3.70;1.73;;;;;;;;;;5008186;28;20062;-80
2023/10/09 12:47:29;;;;;;;4.53;1.80;;;;;;;;;;5010098;28;20058;-78
2023/10/09 12:50:00;;;;;;;2.33;1.30;;;;;;;;;;5009840;28;20046;-79
2023/10/09 12:52:31;;;;;;;3.72;1.67;;;;;;;;;;5010301;28;20046;-80
2023/10/09 12:55:06;;;;;;;5.00;1.90;;;;;;;;;;5010580;28;20050;-79
2023/10/09 12:57:37;;;;;;;6.32;1.98;;;;;;;;;;5028801;28;20050;-79
2023/10/09 13:00:11;;;;;;;5.55;2.05;;;;;;;;;;5114089;27;20056;-82
2023/10/09 13:02:44;;;;;;;2.95;1.85;;;;;;;;;;5031551;28;20049;-79
2023/10/09 13:05:25;;;;;;;6.25;2.03;;;;;;;;;;5031032;28;20511;-79
2023/10/09 13:07:57;;;;;;;7.35;2.40;;;;;;;;;;5031360;28;20509;-81
2023/10/09 13:10:31;;;;;;;4.25;1.75;;;;;;;;;;5031415;28;20033;-80
2023/10/09 13:13:06;;;;;;;5.82;2.05;;;;;;;;;;5031120;28;20490;-80
2023/10/09 13:15:42;;;;;;;5.38;1.55;;;;;;;;;;5031186;28;20038;-80
2023/10/09 13:18:14;;;;;;;3.88;1.83;;;;;;;;;;5030771;28;20042;-80
2023/10/09 13:20:45;;;;;;;5.18;1.65;;;;;;;;;;5031402;28;20054;-83
2023/10/09 13:23:16;;;;;;;7.00;2.10;;;;;;;;;;5031386;28;20403;-79
2023/10/09 13:25:46;;;;;;;8.15;2.67;;;;;;;;;;5013638;28;20419;-79
2023/10/09 13:28:20;;;;;;;33.05;13.98;;;;;;;;;;5023400;28;20038;-79
2023/10/09 13:30:50;;;;;;;7.93;3.22;;;;;;;;;;5007425;28;20073;-79
2023/10/09 13:33:21;;;;;;;8.55;3.10;;;;;;;;;;5010015;28;20045;-80
2023/10/09 13:35:52;;;;;;;3.30;1.65;;;;;;;;;;5009335;28;20062;-81
2023/10/09 13:38:22;;;;;;;5.35;2.05;;;;;;;;;;5017993;28;20049;-82
2023/10/09 13:41:04;;;;;;;4.43;1.70;;;;;;;;;;5013425;28;20068;-79
2023/10/09 13:43:34;;;;;;;5.30;2.67;;;;;;;;;;5030586;28;20041;-80
2023/10/09 13:46:05;;;;;;;4.63;2.10;;;;;;;;;;5034147;28;20036;-80
2023/10/09 13:48:40;;;;;;;4.07;1.98;;;;;;;;;;5036728;28;20119;-81
2023/10/09 13:51:17;;;;;;;7.68;2.30;;;;;;;;;;5068307;28;20068;-80
2023/10/09 13:53:48;;;;;;;3.22;1.70;;;;;;;;;;5052808;28;20745;-80
2023/10/09 13:56:21;;;;;;;4.40;2.08;;;;;;;;;;5053266;28;20045;-82
2023/10/09 13:58:54;;;;;;;2.97;1.60;;;;;;;;;;5037676;28;20042;-80
2023/10/09 14:01:27;;;;;;;5.07;2.33;;;;;;;;;;5021007;28;20053;-81
2023/10/09 14:03:59;;;;;;;4.45;1.75;;;;;;;;;;5030673;28;20053;-79
2023/10/09 14:06:31;;;;;;;4.75;2.10;;;;;;;;;;5029874;28;20053;-79
2023/10/09 14:09:04;;;;;;;5.82;1.90;;;;;;;;;;5029799;28;20046;-81
2023/10/09 14:11:39;;;;;;;6.18;2.10;;;;;;;;;;5010668;28;20049;-79
2023/10/09 14:14:11;;;;;;;8.45;1.95;;;;;;;;;;5010737;28;20046;-80
2023/10/09 14:16:42;;;;;;;3.70;1.40;;;;;;;;;;5012206;28;20048;-80
2023/10/09 14:19:13;;;;;;;2.88;1.48;;;;;;;;;;5010093;28;20057;-79
2023/10/09 14:21:44;;;;;;;3.53;1.45;;;;;;;;;;5011490;28;20046;-80
2023/10/09 14:24:17;;;;;;;4.43;2.05;;;;;;;;;;5010566;28;20054;-81
2023/10/09 14:26:51;;;;;;;6.07;1.33;;;;;;;;;;5008981;28;20049;-82
2023/10/09 14:29:26;;;;;;;3.15;1.67;;;;;;;;;;5010793;28;20049;-80
2023/10/09 14:32:02;;;;;;;6.32;1.55;;;;;;;;;;4993098;28;20057;-80
2023/10/09 14:34:35;;;;;;;3.97;1.55;;;;;;;;;;4993587;28;20049;-80
2023/10/09 14:37:06;;;;;;;3.85;1.30;;;;;;;;;;5010527;28;20537;-81
2023/10/09 14:39:37;;;;;;;2.75;1.20;;;;;;;;;;5010583;28;20057;-82
2023/10/09 14:42:10;;;;;;;2.83;1.75;;;;;;;;;;5011412;28;20053;-80
2023/10/09 14:44:41;;;;;;;4.30;1.35;;;;;;;;;;5010565;28;20495;-81
2023/10/09 14:47:14;;;;;;;2.72;1.38;;;;;;;;;;5009979;28;20054;-80
2023/10/09 14:49:48;;;;;;;2.25;1.33;;;;;;;;;;5010036;28;20046;-79
2023/10/09 14:52:20;;;;;;;2.13;1.02;;;;;;;;;;5010426;28;20038;-80
2023/10/09 14:54:51;;;;;;;5.03;1.40;;;;;;;;;;5010033;28;20059;-81
2023/10/09 14:57:21;;;;;;;3.78;1.73;;;;;;;;;;5011730;28;20054;-82
2023/10/09 14:59:53;;;;;;;;;;;;;;;;;;5012504;28;20049;-82
2023/10/09 15:02:23;;;;;;;5.57;1.20;;;;;;;;;;5010177;28;19921;-81
2023/10/09 15:04:53;;;;;;;2.10;1.50;;;;;;;;;;5011092;28;20049;-81
2023/10/09 15:07:24;;;;;;;5.30;1.48;;;;;;;;;;5008676;28;20053;-81
2023/10/09 15:10:09;;;;;;;3.10;1.10;;;;;;;;;;5010316;28;20050;-81
2023/10/09 15:12:42;;;;;;;4.07;1.30;;;;;;;;;;5009447;28;20495;-82
2023/10/09 15:15:16;;;;;;;3.38;1.05;;;;;;;;;;5009908;28;20381;-82
2023/10/09 15:17:47;;;;;;;1.85;1.00;;;;;;;;;;5009581;28;20053;-83
2023/10/09 15:20:20;;;;;;;2.47;1.67;;;;;;;;;;5009994;28;20053;-82
2023/10/09 15:22:51;;;;;;;3.75;1.02;;;;;;;;;;5009734;28;20038;-80
2023/10/09 15:25:21;;;;;;;2.60;1.08;;;;;;;;;;5010831;28;20061;-80
2023/10/09 15:27:52;;;;;;;3.90;0.90;;;;;;;;;;5012818;28;20045;-82
2023/10/09 15:30:22;;;;;;;1.65;0.95;;;;;;;;;;5013107;28;20068;-82
2023/10/09 15:32:53;;;;;;;4.90;1.08;;;;;;;;;;5012907;28;20500;-80
2023/10/09 15:35:23;;;;;;;4.93;1.83;;;;;;;;;;5012754;28;20050;-82
2023/10/09 15:37:54;;;;;;;4.75;1.27;;;;;;;;;;5013817;28;20053;-81
2023/10/09 15:40:24;;;;;;;3.53;1.02;;;;;;;;;;5012576;28;20038;-80
2023/10/09 15:42:56;;;;;;;5.15;1.33;;;;;;;;;;5012685;28;20046;-80
2023/10/09 15:45:28;;;;;;;3.90;1.38;;;;;;;;;;5011176;28;20049;-80
2023/10/09 15:48:02;;;;;;;3.35;1.10;;;;;;;;;;5012926;28;20057;-83
2023/10/09 15:50:34;;;;;;;2.40;0.90;;;;;;;;;;5013516;28;20042;-82
2023/10/09 15:53:06;;;;;;;1.83;1.00;;;;;;;;;;5014603;28;20418;-81
2023/10/09 15:55:38;;;;;;;2.78;1.10;;;;;;;;;;5032778;28;20064;-84
2023/10/09 15:58:09;;;;;;;2.75;1.13;;;;;;;;;;5032509;28;20042;-82
2023/10/09 16:00:43;;;;;;;3.28;1.20;;;;;;;;;;5031952;28;20053;-82
2023/10/09 16:03:14;;;;;;;2.50;1.20;;;;;;;;;;5032511;28;20530;-83
2023/10/09 16:05:46;;;;;;;3.17;1.25;;;;;;;;;;5032854;28;20050;-83
2023/10/09 16:08:19;;;;;;;2.55;0.95;;;;;;;;;;5014752;28;20049;-83
2023/10/09 16:10:49;;;;;;;2.88;1.00;;;;;;;;;;5031928;28;20475;-82
2023/10/09 16:13:21;;;;;;;1.75;1.10;;;;;;;;;;5032427;28;20049;-83
2023/10/09 16:15:51;;;;;;;;;;;;;;;;;;5032761;28;20052;-83
2023/10/09 16:18:21;;;;;;;4.45;1.40;;;;;;;;;;5032367;28;20268;-81
2023/10/09 16:20:54;;;;;;;2.70;1.08;;;;;;;;;;5032494;28;20049;-82
2023/10/09 16:23:27;;;;;;;4.93;1.83;;;;;;;;;;5031902;28;20052;-84
2023/10/09 16:26:04;;;;;;;1.85;1.17;;;;;;;;;;5032371;28;20041;-82
2023/10/09 16:28:36;;;;;;;2.95;1.17;;;;;;;;;;5032070;28;20045;-85
2023/10/09 16:31:12;;;;;;;;;;;;;;;;;;5032226;28;20041;-81
2023/10/09 16:33:42;;;;;;;2.95;1.15;;;;;;;;;;5117117;27;20302;-85
2023/10/09 16:36:13;;;;;;;3.70;1.00;;;;;;;;;;5031808;28;20060;-81
2023/10/09 16:38:43;;;;;;;2.83;1.00;;;;;;;;;;5032375;28;20057;-82
2023/10/09 16:41:13;;;;;;;2.40;1.23;;;;;;;;;;5031868;28;20501;-81
2023/10/09 16:43:43;;;;;;;6.22;1.27;;;;;;;;;;5032010;28;20045;-83
2023/10/09 16:46:14;;;;;;;2.35;1.05;;;;;;;;;;5032305;28;20053;-82
2023/10/09 16:48:51;;;;;;;2.58;1.00;;;;;;;;;;5032274;28;20061;-81
2023/10/09 16:51:22;;;;;;;1.63;1.00;;;;;;;;;;5032142;28;20049;-82
2023/10/09 16:53:52;;;;;;;3.15;1.52;;;;;;;;;;5032276;28;20049;-81
2023/10/09 16:56:23;;;;;;;3.25;1.05;;;;;;;;;;5031884;28;20049;-81
2023/10/09 16:58:53;;;;;;;2.25;0.88;;;;;;;;;;5031078;28;20045;-84
2023/10/09 17:01:27;;;;;;;3.47;1.38;;;;;;;;;;5031885;28;20491;-84
2023/10/09 17:04:03;;;;;;;2.50;1.10;;;;;;;;;;5031337;28;20037;-82
2023/10/09 17:06:34;;;;;;;3.35;1.00;;;;;;;;;;5031664;28;20064;-83
2023/10/09 17:09:07;;;;;;;2.80;1.48;;;;;;;;;;5031310;28;20042;-83
2023/10/09 17:11:38;;;;;;;3.17;1.35;;;;;;;;;;4996131;28;20049;-80
2023/10/09 17:14:15;;;;;;;6.93;1.40;;;;;;;;;;5030449;28;20041;-82
2023/10/09 17:16:47;;;;;;;2.40;1.20;;;;;;;;;;5031495;28;20487;-81
2023/10/09 17:19:17;;;;;;;2.97;1.00;;;;;;;;;;5031507;28;20045;-82
2023/10/09 17:21:47;;;;;;;2.33;1.27;;;;;;;;;;5030911;28;20049;-81
2023/10/09 17:24:22;;;;;;;2.45;1.10;;;;;;;;;;5029574;28;20049;-81
2023/10/09 17:26:55;;;;;;;3.35;1.10;;;;;;;;;;5030468;28;20045;-83
2023/10/09 17:29:27;;;;;;;3.15;1.10;;;;;;;;;;5019762;28;20503;-80
2023/10/09 17:31:58;;;;;;;2.70;1.10;;;;;;;;;;5009564;28;20049;-82
2023/10/09 17:34:31;;;;;;;2.45;0.90;;;;;;;;;;5010875;28;20061;-81
2023/10/09 17:37:04;;;;;;;2.53;1.13;;;;;;;;;;5010853;28;20046;-81
2023/10/09 17:39:35;;;;;;;4.50;1.20;;;;;;;;;;5011154;28;20038;-81
2023/10/09 17:42:05;;;;;;;3.90;1.15;;;;;;;;;;5010908;28;20056;-82
2023/10/09 17:44:38;;;;;;;7.38;1.30;;;;;;;;;;5010901;28;20042;-81
2023/10/09 17:47:10;;;;;;;3.65;1.00;;;;;;;;;;5009860;28;20073;-81
2023/10/09 17:49:41;;;;;;;3.25;0.98;;;;;;;;;;5010837;28;20041;-80
2023/10/09 17:52:12;;;;;;;3.78;1.42;;;;;;;;;;5010862;28;20057;-81
2023/10/09 17:54:43;;;;;;;1.55;0.82;;;;;;;;;;5010740;28;20053;-81
2023/10/09 17:57:14;;;;;;;3.78;1.00;;;;;;;;;;5010643;28;20061;-83
2023/10/09 17:59:45;;;;;;;1.80;1.10;;;;;;;;;;5010718;28;20046;-80
2023/10/09 18:02:15;;;;;;;3.35;1.20;;;;;;;;;;5010747;28;20480;-82
2023/10/09 18:04:48;;;;;;;1.38;0.88;;;;;;;;;;5008989;28;20042;-84
2023/10/09 18:07:19;;;;;;;4.45;1.40;;;;;;;;;;5010350;28;20050;-79
2023/10/09 18:09:52;;;;;;;1.90;0.80;;;;;;;;;;5010232;28;20041;-81
2023/10/09 18:12:25;;;;;;;1.70;0.90;;;;;;;;;;5009489;28;20046;-80
2023/10/09 18:14:59;;;;;;;3.72;0.90;;;;;;;;;;5011413;28;20499;-81
2023/10/09 18:17:29;;;;;;;3.72;1.10;;;;;;;;;;5013879;28;20038;-80
2023/10/09 18:20:00;;;;;;;3.00;1.00;;;;;;;;;;5030082;28;20423;-79
2023/10/09 18:22:30;;;;;;;2.65;0.82;;;;;;;;;;5030738;28;20042;-80